Big Bear Station Historical Data
Daily Summary for September 5, 2017 Units:  English    Metric   Both
« Previous Day
Next Day »
Daily Weekly Monthly Yearly Custom
  High: Low: Average:
Temperature: 81.3 °F 51.1 °F 63.3 °F
Dew Point: 55.1 °F 43.7 °F 49.5 °F
Humidity: 90 % 37 % 64 %
Wind Speed: 5.8 mph 0.0 mph 1.5 mph
Wind Gust: -999.0 mph - -
Wind:- - West
Pressure: 30.33 in 30.27 in -
Precipitation: 0.00 in    
Historical Graphs
 
 
Tabular Data for September 5, 2017
Time Temperature Dew Point Pressure Wind Wind Speed Wind Gust Humidity Rainfall Rate (Hourly)
00:01 53.4 °F 48.0 °F 30.28 in Calm   -999.0 mph 82 % 0 in
00:16 53.1 °F 48.1 °F 30.28 in Calm   -999.0 mph 83 % 0 in
00:31 52.7 °F 47.7 °F 30.28 in Calm   -999.0 mph 83 % 0 in
00:46 52.5 °F 47.8 °F 30.28 in Calm   -999.0 mph 84 % 0 in
01:01 52.3 °F 48.2 °F 30.29 in Calm   -999.0 mph 86 % 0 in
01:32 52.0 °F 48.3 °F 30.28 in Calm   -999.0 mph 87 % 0 in
01:47 51.8 °F 48.1 °F 30.28 in SSW 1.7 mph -999.0 mph 87 % 0 in
02:02 51.4 °F 48.0 °F 30.28 in Calm   -999.0 mph 88 % 0 in
02:17 51.6 °F 48.2 °F 30.28 in Calm   -999.0 mph 88 % 0 in
02:33 51.3 °F 47.9 °F 30.28 in Calm   -999.0 mph 88 % 0 in
02:48 51.6 °F 48.2 °F 30.28 in Calm   -999.0 mph 88 % 0 in
03:03 51.3 °F 48.2 °F 30.27 in Calm   -999.0 mph 89 % 0 in
03:18 51.6 °F 48.5 °F 30.27 in Calm   -999.0 mph 89 % 0 in
03:33 51.1 °F 48.3 °F 30.27 in Calm   -999.0 mph 90 % 0 in
03:49 52.0 °F 48.9 °F 30.27 in South 2.2 mph -999.0 mph 89 % 0 in
04:04 51.8 °F 48.7 °F 30.27 in SSE 1.1 mph -999.0 mph 89 % 0 in
04:19 51.6 °F 47.5 °F 30.28 in Calm   -999.0 mph 86 % 0 in
04:34 51.6 °F 47.2 °F 30.28 in Calm   -999.0 mph 85 % 0 in
04:49 51.3 °F 46.6 °F 30.28 in Calm   -999.0 mph 84 % 0 in
05:05 52.2 °F 48.1 °F 30.28 in SSE 2.7 mph -999.0 mph 86 % 0 in
05:20 51.8 °F 47.1 °F 30.28 in Calm   -999.0 mph 84 % 0 in
05:35 52.0 °F 46.4 °F 30.28 in SSW 2.2 mph -999.0 mph 81 % 0 in
05:50 51.6 °F 47.2 °F 30.28 in SE 1.7 mph -999.0 mph 85 % 0 in
06:05 51.4 °F 46.1 °F 30.28 in Calm   -999.0 mph 82 % 0 in
06:21 51.1 °F 45.8 °F 30.29 in Calm   -999.0 mph 82 % 0 in
06:36 51.6 °F 45.3 °F 30.28 in Calm   -999.0 mph 79 % 0 in
06:51 52.3 °F 46.0 °F 30.28 in Calm   -999.0 mph 79 % 0 in
07:06 52.7 °F 46.7 °F 30.29 in Calm   -999.0 mph 80 % 0 in
07:22 53.1 °F 46.8 °F 30.30 in Calm   -999.0 mph 79 % 0 in
07:37 52.9 °F 46.9 °F 30.30 in Calm   -999.0 mph 80 % 0 in
07:52 53.6 °F 47.9 °F 30.30 in Calm   -999.0 mph 81 % 0 in
08:07 54.9 °F 49.2 °F 30.31 in Calm   -999.0 mph 81 % 0 in
08:22 55.8 °F 49.7 °F 30.31 in Calm   -999.0 mph 80 % 0 in
08:38 57.4 °F 50.6 °F 30.31 in Calm   -999.0 mph 78 % 0 in
08:53 58.8 °F 51.6 °F 30.31 in Calm   -999.0 mph 77 % 0 in
09:08 60.4 °F 51.0 °F 30.31 in Calm   -999.0 mph 71 % 0 in
09:23 62.8 °F 53.6 °F 30.31 in Calm   -999.0 mph 72 % 0 in
09:38 65.8 °F 50.6 °F 30.32 in WNW 1.1 mph -999.0 mph 58 % 0 in
09:54 67.8 °F 51.5 °F 30.32 in NW 2.2 mph -999.0 mph 56 % 0 in
10:09 70.2 °F 50.7 °F 30.32 in Calm   -999.0 mph 50 % 0 in
10:24 71.2 °F 49.9 °F 30.32 in Calm   -999.0 mph 47 % 0 in
10:39 72.3 °F 50.9 °F 30.32 in NE 1.7 mph -999.0 mph 47 % 0 in
10:54 73.4 °F 50.8 °F 30.32 in NW 4.7 mph -999.0 mph 45 % 0 in
11:10 74.8 °F 50.2 °F 30.32 in NW 5.3 mph -999.0 mph 42 % 0 in
11:25 75.6 °F 50.2 °F 30.32 in NW 5.3 mph -999.0 mph 41 % 0 in
11:40 77.0 °F 50.2 °F 30.32 in West 4.2 mph -999.0 mph 39 % 0 in
11:56 77.9 °F 52.3 °F 30.32 in NW 4.7 mph -999.0 mph 41 % 0 in
12:11 79.2 °F 54.1 °F 30.32 in NNW 4.7 mph -999.0 mph 42 % 0 in
12:26 81.3 °F 52.6 °F 30.31 in WNW 4.2 mph -999.0 mph 37 % 0 in
12:42 79.3 °F 52.2 °F 30.31 in North 3.7 mph -999.0 mph 39 % 0 in
12:57 76.8 °F 52.0 °F 30.31 in North 4.7 mph -999.0 mph 42 % 0 in
13:13 78.8 °F 52.4 °F 30.31 in NNW 3.2 mph -999.0 mph 40 % 0 in
13:28 79.7 °F 51.1 °F 30.31 in NNW 5.8 mph -999.0 mph 37 % 0 in
13:43 77.9 °F 51.0 °F 30.31 in WNW 5.8 mph -999.0 mph 39 % 0 in
13:58 79.9 °F 51.3 °F 30.31 in WNW 4.7 mph -999.0 mph 37 % 0 in
14:13 78.8 °F 51.1 °F 30.31 in NW 5.3 mph -999.0 mph 38 % 0 in
14:29 75.4 °F 49.4 °F 30.31 in NW 3.7 mph -999.0 mph 40 % 0 in
14:44 75.4 °F 48.7 °F 30.30 in NNW 3.7 mph -999.0 mph 39 % 0 in
14:59 74.5 °F 47.9 °F 30.30 in SSW 2.7 mph -999.0 mph 39 % 0 in
15:14 75.6 °F 48.2 °F 30.30 in WNW 1.1 mph -999.0 mph 38 % 0 in
15:45 73.8 °F 49.3 °F 30.29 in WNW 2.7 mph -999.0 mph 42 % 0 in
16:00 75.6 °F 52.8 °F 30.29 in NNW 4.2 mph -999.0 mph 45 % 0 in
16:15 76.8 °F 53.2 °F 30.29 in NNE 2.2 mph -999.0 mph 44 % 0 in
16:30 75.7 °F 52.2 °F 30.29 in NW 3.7 mph -999.0 mph 44 % 0 in
16:46 77.5 °F 52.0 °F 30.28 in WNW 3.2 mph -999.0 mph 41 % 0 in
17:01 75.7 °F 51.0 °F 30.28 in WNW 4.2 mph -999.0 mph 42 % 0 in
17:16 75.2 °F 50.5 °F 30.28 in WNW 2.7 mph -999.0 mph 42 % 0 in
17:31 78.6 °F 51.6 °F 30.28 in SW 2.7 mph -999.0 mph 39 % 0 in
17:47 75.2 °F 50.5 °F 30.28 in NNW 3.2 mph -999.0 mph 42 % 0 in
18:02 72.7 °F 53.0 °F 30.28 in NNW 2.2 mph -999.0 mph 50 % 0 in
18:17 71.4 °F 53.4 °F 30.29 in NW 2.7 mph -999.0 mph 53 % 0 in
18:33 70.0 °F 54.1 °F 30.29 in North 2.7 mph -999.0 mph 57 % 0 in
18:48 68.2 °F 55.1 °F 30.29 in WNW 2.2 mph -999.0 mph 63 % 0 in
19:03 67.1 °F 54.9 °F 30.29 in WNW 1.7 mph -999.0 mph 65 % 0 in
19:18 66.0 °F 54.3 °F 30.29 in NW 1.7 mph -999.0 mph 66 % 0 in
19:33 65.1 °F 52.6 °F 30.30 in Calm   -999.0 mph 64 % 0 in
19:49 64.8 °F 52.8 °F 30.30 in Calm   -999.0 mph 65 % 0 in
20:04 64.0 °F 51.6 °F 30.30 in South 1.7 mph -999.0 mph 64 % 0 in
20:19 63.1 °F 51.1 °F 30.31 in Calm   -999.0 mph 65 % 0 in
20:34 62.4 °F 49.6 °F 30.31 in Calm   -999.0 mph 63 % 0 in
20:49 61.5 °F 49.2 °F 30.31 in Calm   -999.0 mph 64 % 0 in
21:05 61.0 °F 49.2 °F 30.31 in Calm   -999.0 mph 65 % 0 in
21:20 60.4 °F 48.2 °F 30.32 in Calm   -999.0 mph 64 % 0 in
21:35 59.7 °F 47.9 °F 30.32 in Calm   -999.0 mph 65 % 0 in
21:51 59.2 °F 47.4 °F 30.32 in Calm   -999.0 mph 65 % 0 in
22:06 58.8 °F 47.5 °F 30.33 in Calm   -999.0 mph 66 % 0 in
22:21 58.5 °F 47.6 °F 30.33 in Calm   -999.0 mph 67 % 0 in
22:36 58.1 °F 46.4 °F 30.33 in Calm   -999.0 mph 65 % 0 in
22:52 57.9 °F 45.0 °F 30.33 in Calm   -999.0 mph 62 % 0 in
23:07 57.9 °F 44.1 °F 30.33 in Calm   -999.0 mph 60 % 0 in
23:22 57.9 °F 43.7 °F 30.33 in Calm   -999.0 mph 59 % 0 in
23:37 57.9 °F 45.0 °F 30.33 in Calm   -999.0 mph 62 % 0 in
23:53 57.7 °F 46.4 °F 30.32 in Calm   -999.0 mph 66 % 0 in
Big Bear CA Weather
Compliments of Weather Underground - 1.5 mb